Time;durP1;ratioP1;P1;durP2;ratioP2;P2;SDS_P1;SDS_P2;PMS_P1;PMS_P2;Temp;Humidity;BMP_temperature;BMP_pressure;BME280_temperature;BME280_humidity;BME280_pressure;Samples;Min_cycle;Max_cycle;Signal;HPM_P1;HPM_P2
2021/03/29 00:00:07;;;;;;;1.50;1.10;;;10.20;87.50;;;;;;4995392;28;20475;-76
2021/03/29 00:02:33;;;;;;;1.57;1.20;;;10.20;87.50;;;;;;4989210;28;20503;-76
2021/03/29 00:05:00;;;;;;;1.50;1.00;;;10.20;87.40;;;;;;4995459;28;20483;-76
2021/03/29 00:07:28;;;;;;;1.50;1.20;;;10.20;87.50;;;;;;4990722;28;20538;-76
2021/03/29 00:09:55;;;;;;;1.50;1.10;;;10.20;87.50;;;;;;4995865;28;20489;-76
2021/03/29 00:12:24;;;;;;;1.50;1.10;;;10.30;87.50;;;;;;4988334;28;20473;-76
2021/03/29 00:14:53;;;;;;;1.50;1.20;;;10.30;87.70;;;;;;4994332;28;20939;-76
2021/03/29 00:17:20;;;;;;;1.70;1.30;;;10.30;87.60;;;;;;4993582;28;20476;-76
2021/03/29 00:19:48;;;;;;;1.50;1.20;;;10.30;87.50;;;;;;4995453;28;20517;-75
2021/03/29 00:22:14;;;;;;;1.50;1.10;;;10.30;87.70;;;;;;4987153;28;20482;-76
2021/03/29 00:24:40;;;;;;;1.57;1.10;;;10.30;87.70;;;;;;4994788;28;20468;-75
2021/03/29 00:27:08;;;;;;;1.50;1.10;;;10.30;87.70;;;;;;4986585;28;20473;-75
2021/03/29 00:29:34;;;;;;;1.50;1.20;;;10.30;87.80;;;;;;4997719;28;20481;-76
2021/03/29 00:32:03;;;;;;;1.50;1.10;;;10.30;87.80;;;;;;4992557;28;20495;-76
2021/03/29 00:34:31;;;;;;;1.50;1.20;;;10.30;87.80;;;;;;4991430;28;20473;-76
2021/03/29 00:36:57;;;;;;;1.53;1.20;;;10.40;87.90;;;;;;4986672;28;20625;-76
2021/03/29 00:39:25;;;;;;;1.50;1.10;;;10.40;87.80;;;;;;4991943;28;20520;-77
2021/03/29 00:41:52;;;;;;;1.50;1.10;;;10.40;87.80;;;;;;4984408;28;20492;-74
2021/03/29 00:44:20;;;;;;;1.50;1.20;;;10.40;87.70;;;;;;4992439;28;20792;-76
2021/03/29 00:46:48;;;;;;;1.50;1.10;;;10.30;87.80;;;;;;4984017;28;20484;-76
2021/03/29 00:49:16;;;;;;;1.60;1.30;;;10.30;87.80;;;;;;4996464;28;20484;-75
2021/03/29 00:51:43;;;;;;;1.53;1.10;;;10.30;87.90;;;;;;4983700;28;20480;-77
2021/03/29 00:54:10;;;;;;;1.50;1.13;;;10.30;88.00;;;;;;4996014;28;20464;-77
2021/03/29 00:56:39;;;;;;;1.53;1.20;;;10.20;88.00;;;;;;4984221;28;20488;-76
2021/03/29 00:59:07;;;;;;;1.53;1.17;;;10.20;88.20;;;;;;4998588;28;20476;-77
2021/03/29 01:01:39;;;;;;;1.50;1.10;;;10.20;88.20;;;;;;4990876;28;20480;-76
2021/03/29 01:04:06;;;;;;;1.57;1.20;;;10.10;88.30;;;;;;4989989;28;20537;-75
2021/03/29 01:06:38;;;;;;;1.50;1.20;;;10.10;88.60;;;;;;4984282;28;20519;-77
2021/03/29 01:09:07;;;;;;;1.50;1.10;;;10.00;88.70;;;;;;5000981;28;20465;-77
2021/03/29 01:11:39;;;;;;;1.50;1.10;;;10.00;88.80;;;;;;4971763;28;20934;-77
2021/03/29 01:14:09;;;;;;;1.50;1.10;;;9.90;88.70;;;;;;4991235;28;20460;-76
2021/03/29 01:16:40;;;;;;;1.60;1.23;;;9.90;89.00;;;;;;4977752;28;20690;-76
2021/03/29 01:19:13;;;;;;;1.50;1.10;;;9.80;89.30;;;;;;4998980;28;20491;-76
2021/03/29 01:21:52;;;;;;;1.57;1.10;;;9.80;89.70;;;;;;4980068;28;20476;-76
2021/03/29 01:24:25;;;;;;;1.53;1.20;;;9.70;89.80;;;;;;4993066;28;20469;-76
2021/03/29 01:26:53;;;;;;;1.50;1.10;;;9.70;89.60;;;;;;4985585;28;20496;-76
2021/03/29 01:29:29;;;;;;;1.50;1.10;;;9.70;89.60;;;;;;4995463;28;20563;-76
2021/03/29 01:31:56;;;;;;;1.50;1.10;;;9.60;89.80;;;;;;4985525;28;20579;-76
2021/03/29 01:34:23;;;;;;;1.50;1.20;;;9.60;89.90;;;;;;4993072;28;20465;-76
2021/03/29 01:36:49;;;;;;;1.50;1.20;;;9.50;89.90;;;;;;4988640;28;20476;-76
2021/03/29 01:39:17;;;;;;;1.53;1.17;;;9.50;90.00;;;;;;4995092;28;20496;-76
2021/03/29 01:41:43;;;;;;;1.57;1.10;;;9.50;90.40;;;;;;4983105;28;20664;-76
2021/03/29 01:44:11;;;;;;;1.50;1.20;;;9.40;90.30;;;;;;5001719;28;20461;-76
2021/03/29 01:46:38;;;;;;;1.50;1.10;;;9.40;90.00;;;;;;4990782;28;20798;-76
2021/03/29 01:49:05;;;;;;;1.57;1.20;;;9.40;90.20;;;;;;5002921;28;20461;-76
2021/03/29 01:51:32;;;;;;;1.50;1.10;;;9.40;90.20;;;;;;4985012;28;20986;-75
2021/03/29 01:54:00;;;;;;;5.13;2.93;;;9.30;90.20;;;;;;5002127;28;21145;-77
2021/03/29 01:56:26;;;;;;;1.57;1.20;;;9.30;90.20;;;;;;4982993;28;20485;-77
2021/03/29 01:58:52;;;;;;;1.53;1.10;;;9.30;90.70;;;;;;4998767;28;20468;-78
2021/03/29 02:01:20;;;;;;;1.50;1.23;;;9.20;90.20;;;;;;4985493;28;20850;-77
2021/03/29 02:03:48;;;;;;;1.50;1.20;;;9.20;90.60;;;;;;4999447;28;20466;-76
2021/03/29 02:06:16;;;;;;;1.50;1.10;;;9.20;90.40;;;;;;4981537;28;20484;-77
2021/03/29 02:08:45;;;;;;;1.50;1.20;;;9.20;90.70;;;;;;5005037;28;20572;-78
2021/03/29 02:11:12;;;;;;;1.60;1.20;;;9.20;90.60;;;;;;4987299;28;22247;-76
2021/03/29 02:13:44;;;;;;;1.57;1.20;;;9.10;90.70;;;;;;4999164;28;20488;-75
2021/03/29 02:16:12;;;;;;;1.50;1.10;;;9.10;90.50;;;;;;4988194;28;20503;-76
2021/03/29 02:18:42;;;;;;;1.60;1.30;;;9.10;90.80;;;;;;4998693;28;20968;-74
2021/03/29 02:21:11;;;;;;;1.60;1.20;;;9.10;90.70;;;;;;4986414;28;20956;-77
2021/03/29 02:23:40;;;;;;;1.50;1.20;;;9.00;90.70;;;;;;5004481;28;20580;-76
2021/03/29 02:26:06;;;;;;;1.53;1.20;;;9.00;90.80;;;;;;4994654;28;20503;-75
2021/03/29 02:28:34;;;;;;;1.60;1.20;;;9.00;90.60;;;;;;5001181;28;20473;-77
2021/03/29 02:31:01;;;;;;;1.57;1.30;;;9.00;90.30;;;;;;4977281;28;20491;-76
2021/03/29 02:33:28;;;;;;;1.57;1.20;;;9.00;90.60;;;;;;4998461;28;20547;-77
2021/03/29 02:35:55;;;;;;;1.57;1.20;;;9.00;90.60;;;;;;4982254;28;20469;-77
2021/03/29 02:38:22;;;;;;;1.57;1.20;;;9.00;90.70;;;;;;4999392;28;20476;-75
2021/03/29 02:40:50;;;;;;;1.57;1.20;;;9.00;90.60;;;;;;4980602;28;20960;-77
2021/03/29 02:43:17;;;;;;;1.60;1.20;;;9.00;90.40;;;;;;5005003;28;20517;-75
2021/03/29 02:45:51;;;;;;;1.60;1.20;;;9.00;90.40;;;;;;5000651;28;20465;-77
2021/03/29 02:48:20;;;;;;;1.57;1.30;;;9.00;90.20;;;;;;4986692;28;20996;-76
2021/03/29 02:50:48;;;;;;;1.53;1.23;;;9.00;90.30;;;;;;4980582;28;20489;-76
2021/03/29 02:53:18;;;;;;;1.50;1.20;;;9.00;90.10;;;;;;5013329;28;20492;-76
2021/03/29 02:55:45;;;;;;;1.50;1.20;;;9.00;90.00;;;;;;4995662;28;20845;-76
2021/03/29 02:58:14;;;;;;;1.50;1.20;;;9.00;90.00;;;;;;4979414;28;20984;-76
2021/03/29 03:00:41;;;;;;;1.50;1.10;;;8.90;90.30;;;;;;5002624;28;20492;-76
2021/03/29 03:03:09;;;;;;;1.53;1.20;;;8.90;90.30;;;;;;4992993;28;20484;-76
2021/03/29 03:05:37;;;;;;;1.53;1.20;;;8.90;90.20;;;;;;4997449;28;20475;-76
2021/03/29 03:08:05;;;;;;;1.60;1.30;;;8.80;90.60;;;;;;4998856;28;20484;-76
2021/03/29 03:10:33;;;;;;;1.50;1.20;;;8.80;90.70;;;;;;4995300;28;20476;-76
2021/03/29 03:13:03;;;;;;;1.50;1.10;;;8.80;90.60;;;;;;4990577;28;20602;-76
2021/03/29 03:15:30;;;;;;;1.57;1.20;;;8.80;90.60;;;;;;4992547;28;20495;-77
2021/03/29 03:17:59;;;;;;;1.60;1.40;;;8.80;90.70;;;;;;4993882;28;20487;-76
2021/03/29 03:20:27;;;;;;;1.53;1.20;;;8.80;90.60;;;;;;4994690;28;20485;-76
2021/03/29 03:22:55;;;;;;;1.53;1.20;;;8.80;90.60;;;;;;4997433;28;20480;-76
2021/03/29 03:25:24;;;;;;;1.50;1.10;;;8.90;90.30;;;;;;4997421;28;20457;-76
2021/03/29 03:27:52;;;;;;;1.50;1.20;;;8.80;90.10;;;;;;4994501;28;20483;-75
2021/03/29 03:30:20;;;;;;;1.50;1.10;;;8.80;90.20;;;;;;4994023;28;20483;-76
2021/03/29 03:32:46;;;;;;;1.57;1.20;;;8.80;90.30;;;;;;4985080;28;20484;-76
2021/03/29 03:35:15;;;;;;;1.50;1.10;;;8.80;90.30;;;;;;5001163;28;20457;-76
2021/03/29 03:37:44;;;;;;;1.60;1.20;;;8.80;90.30;;;;;;5000676;28;20480;-76
2021/03/29 03:40:12;;;;;;;4.27;3.97;;;8.80;90.30;;;;;;4995858;28;21258;-75
2021/03/29 03:42:39;;;;;;;1.50;1.20;;;8.80;90.40;;;;;;4993161;28;21021;-77
2021/03/29 03:45:09;;;;;;;1.53;1.20;;;8.80;90.50;;;;;;5000802;28;20464;-77
2021/03/29 03:47:37;;;;;;;1.50;1.20;;;8.70;90.60;;;;;;4992004;28;20553;-75
2021/03/29 03:50:07;;;;;;;1.57;1.30;;;8.80;90.60;;;;;;4995737;28;20484;-75
2021/03/29 03:52:34;;;;;;;1.60;1.30;;;8.70;90.60;;;;;;4996081;28;20538;-74
2021/03/29 03:55:00;;;;;;;1.60;1.30;;;8.70;90.70;;;;;;5001237;28;20478;-77
2021/03/29 03:57:28;;;;;;;1.50;1.20;;;8.70;91.00;;;;;;4986132;28;20515;-74
2021/03/29 03:59:55;;;;;;;1.50;1.20;;;8.60;91.20;;;;;;4994466;28;20979;-77
2021/03/29 04:02:23;;;;;;;1.60;1.30;;;8.60;91.30;;;;;;4996267;28;21004;-76
2021/03/29 04:04:49;;;;;;;1.60;1.30;;;8.60;91.20;;;;;;4996141;28;20474;-76
2021/03/29 04:07:15;;;;;;;1.53;1.30;;;8.60;91.40;;;;;;4995144;28;20510;-76
2021/03/29 04:09:46;;;;;;;1.53;1.20;;;8.60;91.40;;;;;;4986625;28;21045;-77
2021/03/29 04:12:13;;;;;;;1.60;1.30;;;8.60;91.30;;;;;;4992549;28;20571;-77
2021/03/29 04:14:40;;;;;;;1.60;1.33;;;8.60;91.60;;;;;;4999266;28;20591;-75
2021/03/29 04:17:07;;;;;;;1.60;1.37;;;8.50;91.40;;;;;;4985822;28;20489;-76
2021/03/29 04:19:34;;;;;;;1.60;1.43;;;8.50;91.70;;;;;;5000099;28;20568;-75
2021/03/29 04:22:00;;;;;;;1.70;1.20;;;8.50;91.70;;;;;;4985563;28;20485;-76
2021/03/29 04:24:27;;;;;;;1.53;1.20;;;8.60;91.60;;;;;;4996547;28;20461;-76
2021/03/29 04:26:54;;;;;;;1.53;1.20;;;8.50;91.70;;;;;;4986067;28;20488;-77
2021/03/29 04:29:20;;;;;;;1.50;1.20;;;8.50;91.80;;;;;;5002543;28;20551;-75
2021/03/29 04:31:46;;;;;;;1.53;1.20;;;8.50;91.60;;;;;;4983991;28;20981;-76
2021/03/29 04:34:13;;;;;;;1.50;1.20;;;8.50;91.60;;;;;;5002846;28;20467;-74
2021/03/29 04:36:40;;;;;;;1.50;1.20;;;8.50;91.90;;;;;;4982579;28;20515;-77
2021/03/29 04:39:07;;;;;;;1.53;1.20;;;8.50;91.70;;;;;;5003050;28;20887;-76
2021/03/29 04:41:33;;;;;;;1.50;1.20;;;8.50;91.80;;;;;;4984300;28;20485;-74
2021/03/29 04:43:59;;;;;;;1.53;1.30;;;8.50;91.70;;;;;;4999891;28;20460;-76
2021/03/29 04:46:25;;;;;;;1.53;1.30;;;8.50;91.80;;;;;;4981719;28;20503;-76
2021/03/29 04:48:52;;;;;;;1.57;1.30;;;8.40;91.70;;;;;;4995950;28;20475;-75
2021/03/29 04:51:18;;;;;;;1.50;1.20;;;8.40;92.00;;;;;;4988244;28;20530;-76
2021/03/29 04:53:45;;;;;;;1.53;1.20;;;8.40;92.10;;;;;;4989245;28;20485;-76
2021/03/29 04:56:12;;;;;;;1.53;1.27;;;8.40;91.90;;;;;;4987789;28;21202;-75
2021/03/29 04:58:38;;;;;;;1.50;1.20;;;8.40;91.80;;;;;;5005307;28;20465;-75
2021/03/29 05:01:04;;;;;;;1.53;1.20;;;8.40;91.90;;;;;;4983335;28;20495;-75
2021/03/29 05:03:31;;;;;;;1.57;1.20;;;8.40;91.90;;;;;;5003887;28;20461;-74
2021/03/29 05:05:57;;;;;;;1.53;1.23;;;8.30;92.20;;;;;;4986957;28;20460;-74
2021/03/29 05:08:23;;;;;;;1.53;1.20;;;8.30;92.20;;;;;;4999495;28;20511;-75
2021/03/29 05:10:50;;;;;;;1.50;1.20;;;8.30;92.40;;;;;;4983344;28;20527;-74
2021/03/29 05:13:16;;;;;;;1.50;1.23;;;8.30;92.40;;;;;;5012265;28;20484;-76
2021/03/29 05:15:43;;;;;;;1.57;1.20;;;8.30;92.20;;;;;;4999578;28;20460;-75
2021/03/29 05:18:09;;;;;;;1.57;1.20;;;8.20;92.40;;;;;;4993330;28;20487;-75
2021/03/29 05:20:35;;;;;;;1.60;1.33;;;8.20;92.80;;;;;;4994722;28;20527;-75
2021/03/29 05:23:02;;;;;;;1.57;1.20;;;8.20;92.80;;;;;;4997238;28;20507;-75
2021/03/29 05:25:28;;;;;;;1.50;1.30;;;8.20;92.60;;;;;;4997725;28;20931;-76
2021/03/29 05:27:55;;;;;;;1.60;1.30;;;8.20;92.70;;;;;;5001283;28;20490;-75
2021/03/29 05:30:22;;;;;;;1.50;1.20;;;8.20;92.50;;;;;;4991229;28;20631;-75
2021/03/29 05:32:48;;;;;;;1.50;1.20;;;8.20;92.60;;;;;;4994164;28;20935;-74
2021/03/29 05:35:15;;;;;;;1.53;1.20;;;8.20;92.60;;;;;;4994227;28;20994;-75
2021/03/29 05:37:41;;;;;;;1.57;1.20;;;8.30;92.70;;;;;;5003470;28;20475;-75
2021/03/29 05:40:10;;;;;;;1.60;1.30;;;8.30;92.50;;;;;;4995674;28;20539;-74
2021/03/29 05:42:37;;;;;;;1.60;1.30;;;8.30;92.40;;;;;;4991046;28;20468;-75
2021/03/29 05:45:08;;;;;;;1.53;1.20;;;8.40;92.50;;;;;;4993400;28;20460;-76
2021/03/29 05:47:35;;;;;;;1.50;1.20;;;8.40;92.50;;;;;;5002549;28;20555;-75
2021/03/29 05:50:03;;;;;;;1.50;1.20;;;8.40;92.60;;;;;;4992849;28;20481;-74
2021/03/29 05:52:29;;;;;;;1.53;1.20;;;8.50;92.70;;;;;;4995305;28;21116;-75
2021/03/29 05:54:56;;;;;;;1.50;1.20;;;8.50;93.30;;;;;;4999185;28;20748;-76
2021/03/29 05:57:23;;;;;;;1.50;1.20;;;8.50;93.80;;;;;;4992464;28;20549;-74
2021/03/29 05:59:50;;;;;;;1.60;1.30;;;8.50;93.90;;;;;;4997313;28;20901;-75
2021/03/29 06:02:31;;;;;;;1.53;1.20;;;8.50;94.00;;;;;;4992263;28;20506;-76
2021/03/29 06:04:58;;;;;;;1.53;1.20;;;8.60;93.70;;;;;;4996220;28;20460;-75
2021/03/29 06:07:26;;;;;;;1.53;1.20;;;8.60;93.60;;;;;;5004318;28;20484;-76
2021/03/29 06:09:54;;;;;;;1.50;1.20;;;8.60;93.60;;;;;;4988132;28;20489;-75
2021/03/29 06:12:21;;;;;;;1.50;1.20;;;8.70;93.70;;;;;;4990266;28;20475;-75
2021/03/29 06:15:00;;;;;;;1.60;1.30;;;8.80;93.30;;;;;;4994176;28;20465;-75
2021/03/29 06:17:27;;;;;;;1.50;1.20;;;8.90;93.50;;;;;;4990696;28;20586;-75
2021/03/29 06:19:58;;;;;;;1.60;1.30;;;9.10;92.80;;;;;;4995997;28;20481;-76
2021/03/29 06:22:25;;;;;;;1.50;1.20;;;9.20;92.70;;;;;;4991578;28;20503;-76
2021/03/29 06:25:10;;;;;;;1.57;1.20;;;9.40;92.80;;;;;;4993533;28;20517;-75
2021/03/29 06:27:44;;;;;;;1.50;1.10;;;9.60;92.10;;;;;;4991078;28;20957;-76
2021/03/29 06:30:17;;;;;;;1.53;1.10;;;9.70;91.70;;;;;;4992480;28;20485;-77
2021/03/29 06:33:01;;;;;;;1.60;1.27;;;10.00;91.90;;;;;;4986511;28;20875;-75
2021/03/29 06:35:31;;;;;;;1.53;1.13;;;10.20;91.40;;;;;;4990976;28;20461;-76
2021/03/29 06:38:12;;;;;;;1.50;1.17;;;10.40;90.70;;;;;;4992102;28;20780;-76
2021/03/29 06:40:41;;;;;;;1.53;1.10;;;10.60;90.90;;;;;;4990533;28;20942;-76
2021/03/29 06:43:22;;;;;;;1.60;1.20;;;10.90;89.60;;;;;;4989199;28;20481;-76
2021/03/29 06:45:49;;;;;;;1.53;1.17;;;11.10;87.80;;;;;;4979936;28;20540;-76
2021/03/29 06:48:20;;;;;;;1.60;1.20;;;11.40;87.00;;;;;;5005313;28;20568;-74
2021/03/29 06:50:47;;;;;;;1.50;1.10;;;11.50;85.10;;;;;;4984501;28;20496;-74
2021/03/29 06:53:25;;;;;;;1.53;1.10;;;11.70;85.20;;;;;;5004958;28;20493;-74
2021/03/29 06:55:56;;;;;;;1.50;1.10;;;11.80;85.00;;;;;;4980655;28;20816;-74
2021/03/29 06:58:25;;;;;;;1.57;1.00;;;12.00;85.20;;;;;;5002220;28;20519;-74
2021/03/29 07:00:55;;;;;;;1.50;1.10;;;12.10;84.30;;;;;;4984568;28;20508;-74
2021/03/29 07:03:21;;;;;;;1.50;1.00;;;12.20;84.10;;;;;;5004542;28;20515;-75
2021/03/29 07:05:49;;;;;;;1.53;1.10;;;12.40;83.80;;;;;;4980646;28;20465;-75
2021/03/29 07:08:16;;;;;;;1.50;1.10;;;12.50;84.20;;;;;;5003731;28;20476;-75
2021/03/29 07:10:43;;;;;;;1.50;1.07;;;12.70;83.30;;;;;;4987441;28;20491;-74
2021/03/29 07:13:10;;;;;;;1.50;1.00;;;12.80;82.50;;;;;;4998785;28;20579;-75
2021/03/29 07:15:37;;;;;;;1.60;1.20;;;12.90;82.40;;;;;;4985947;28;20477;-75
2021/03/29 07:18:04;;;;;;;1.53;1.10;;;13.00;82.50;;;;;;4989419;28;21184;-75
2021/03/29 07:20:33;;;;;;;1.57;1.10;;;13.30;82.30;;;;;;4987965;28;20496;-75
2021/03/29 07:23:00;;;;;;;1.57;1.03;;;13.50;81.80;;;;;;4990293;28;21002;-75
2021/03/29 07:25:30;;;;;;;1.50;1.07;;;13.60;81.20;;;;;;4993674;28;20471;-76
2021/03/29 07:27:59;;;;;;;1.50;1.00;;;13.80;81.10;;;;;;4989992;28;20488;-77
2021/03/29 07:30:47;;;;;;;1.50;1.00;;;13.90;81.10;;;;;;4998902;28;20489;-78
2021/03/29 07:33:14;;;;;;;1.50;1.00;;;14.10;80.80;;;;;;4979112;28;20485;-78
2021/03/29 07:35:49;;;;;;;1.50;0.97;;;14.30;80.10;;;;;;4999120;28;20510;-76
2021/03/29 07:38:17;;;;;;;1.53;1.00;;;14.50;79.80;;;;;;4983728;28;20487;-77
2021/03/29 07:40:48;;;;;;;1.53;1.00;;;14.60;79.40;;;;;;4996692;28;20488;-78
2021/03/29 07:43:17;;;;;;;1.57;1.00;;;14.70;79.00;;;;;;4983171;28;20476;-75
2021/03/29 07:45:49;;;;;;;1.50;0.90;;;14.80;79.00;;;;;;5000561;28;20471;-77
2021/03/29 07:48:32;;;;;;;1.50;1.00;;;14.90;78.50;;;;;;4982321;28;20484;-78
2021/03/29 07:50:58;;;;;;;1.53;1.00;;;14.90;78.60;;;;;;4982427;28;20497;-79
2021/03/29 07:53:43;;;;;;;1.50;1.00;;;15.00;78.60;;;;;;5007747;28;20572;-78
2021/03/29 07:56:11;;;;;;;1.50;0.90;;;15.10;79.00;;;;;;4982610;28;20475;-79
2021/03/29 07:58:45;;;;;;;1.60;1.00;;;15.30;78.50;;;;;;5008193;28;20465;-75
2021/03/29 08:01:14;;;;;;;1.50;1.00;;;15.40;78.40;;;;;;4983177;28;20494;-78
2021/03/29 08:03:54;;;;;;;1.60;1.00;;;15.50;78.00;;;;;;5003843;28;20465;-78
2021/03/29 08:06:48;;;;;;;1.60;1.00;;;15.60;77.80;;;;;;4986117;28;20475;-79
2021/03/29 08:09:22;;;;;;;1.50;0.90;;;15.60;77.70;;;;;;4995240;28;20718;-78
2021/03/29 08:11:53;;;;;;;1.57;1.00;;;15.70;78.00;;;;;;4988480;28;20475;-78
2021/03/29 08:14:37;;;;;;;1.57;0.97;;;15.70;78.20;;;;;;5002605;28;20496;-78
2021/03/29 08:17:35;;;;;;;1.60;1.00;;;15.90;77.70;;;;;;4998053;28;20488;-78
2021/03/29 08:20:36;;;;;;;1.50;0.90;;;16.10;76.60;;;;;;4993275;28;21060;-78
2021/03/29 08:23:32;;;;;;;1.50;0.90;;;16.20;76.10;;;;;;4983401;28;20888;-79
2021/03/29 08:26:20;;;;;;;1.50;0.90;;;16.50;76.40;;;;;;4988350;28;20553;-77
2021/03/29 08:29:15;;;;;;;1.50;1.00;;;16.70;75.90;;;;;;5005358;28;20527;-77
2021/03/29 08:32:21;;;;;;;1.57;1.00;;;16.90;75.30;;;;;;4986568;28;21023;-78
2021/03/29 08:34:54;;;;;;;1.50;1.00;;;17.20;74.20;;;;;;4998376;28;20465;-76
2021/03/29 08:37:31;;;;;;;1.53;1.00;;;17.30;74.20;;;;;;4987511;28;20563;-77
2021/03/29 08:39:59;;;;;;;1.50;0.90;;;17.40;73.90;;;;;;4996294;28;21033;-76
2021/03/29 08:42:30;;;;;;;1.53;1.00;;;17.60;74.20;;;;;;4987376;28;20480;-78
2021/03/29 08:44:57;;;;;;;1.50;0.90;;;17.70;72.80;;;;;;4997654;28;20471;-78
2021/03/29 08:47:25;;;;;;;1.50;0.90;;;17.70;72.50;;;;;;4987922;28;20491;-80
2021/03/29 08:49:54;;;;;;;1.50;0.90;;;17.80;72.40;;;;;;4995019;28;20484;-80
2021/03/29 08:52:21;;;;;;;1.50;1.00;;;17.90;71.30;;;;;;4989016;28;20510;-74
2021/03/29 08:54:53;;;;;;;1.50;0.90;;;18.10;71.60;;;;;;4995876;28;20465;-77
2021/03/29 08:57:23;;;;;;;1.50;1.00;;;18.20;70.90;;;;;;4986220;28;20479;-77
2021/03/29 08:59:56;;;;;;;1.50;0.90;;;18.30;69.60;;;;;;4997130;28;20484;-78
2021/03/29 09:02:23;;;;;;;1.50;0.90;;;18.50;69.80;;;;;;4984604;28;20476;-75
2021/03/29 09:04:52;;;;;;;1.50;0.90;;;18.60;70.00;;;;;;4994155;28;20944;-77
2021/03/29 09:07:18;;;;;;;1.50;0.90;;;18.70;70.10;;;;;;4987530;28;20514;-77
2021/03/29 09:09:45;;;;;;;1.50;0.90;;;19.00;69.60;;;;;;4996951;28;20477;-77
2021/03/29 09:12:21;;;;;;;1.50;0.90;;;19.10;68.20;;;;;;4989935;28;20522;-77
2021/03/29 09:14:48;;;;;;;1.50;0.90;;;19.30;66.80;;;;;;4993351;28;20515;-78
2021/03/29 09:17:26;;;;;;;1.57;0.90;;;19.40;64.70;;;;;;4985235;28;20482;-77
2021/03/29 09:19:52;;;;;;;1.50;0.90;;;19.60;64.50;;;;;;4987474;28;20520;-74
2021/03/29 09:22:29;;;;;;;1.53;0.90;;;19.60;63.10;;;;;;4993066;28;20542;-77
2021/03/29 09:24:56;;;;;;;1.50;0.90;;;19.70;63.30;;;;;;4987497;28;20464;-79
2021/03/29 09:27:29;;;;;;;1.50;0.90;;;19.70;63.10;;;;;;4989554;28;20622;-79
2021/03/29 09:29:55;;;;;;;1.50;0.90;;;19.90;64.60;;;;;;4993898;28;20484;-79
2021/03/29 09:32:23;;;;;;;1.50;0.90;;;20.00;63.60;;;;;;4987576;28;21026;-79
2021/03/29 09:34:51;;;;;;;1.50;0.90;;;20.20;63.30;;;;;;4994490;28;20469;-79
2021/03/29 09:37:19;;;;;;;1.50;0.90;;;20.30;62.60;;;;;;4982299;28;20476;-80
2021/03/29 09:39:46;;;;;;;1.53;0.90;;;20.40;61.40;;;;;;4997517;28;20500;-78
2021/03/29 09:42:15;;;;;;;1.50;0.90;;;20.40;61.00;;;;;;4992617;28;20472;-76
2021/03/29 09:44:43;;;;;;;1.50;0.90;;;20.40;61.70;;;;;;4995233;28;20984;-78
2021/03/29 09:47:09;;;;;;;1.50;0.90;;;20.50;61.50;;;;;;4987098;28;20535;-77
2021/03/29 09:49:49;;;;;;;1.53;0.90;;;20.60;61.30;;;;;;4996744;28;20480;-81
2021/03/29 09:52:17;;;;;;;1.60;1.00;;;20.80;60.10;;;;;;4991003;28;20487;-78
2021/03/29 09:54:46;;;;;;;1.50;0.90;;;20.70;59.60;;;;;;4991059;28;20457;-75
2021/03/29 09:57:15;;;;;;;1.60;1.10;;;20.80;59.00;;;;;;4984511;28;20566;-75
2021/03/29 09:59:43;;;;;;;1.50;1.00;;;20.90;58.90;;;;;;4994368;28;20512;-77
2021/03/29 10:02:11;;;;;;;1.50;0.90;;;20.90;58.50;;;;;;4988266;28;20604;-79
2021/03/29 10:04:38;;;;;;;1.50;0.90;;;21.10;59.00;;;;;;4992580;28;20457;-79
2021/03/29 10:07:13;;;;;;;1.50;0.90;;;21.20;59.40;;;;;;4984769;28;20491;-77
2021/03/29 10:09:39;;;;;;;1.50;0.90;;;21.30;58.50;;;;;;4994112;28;20670;-74
2021/03/29 10:12:07;;;;;;;1.50;0.87;;;21.30;59.00;;;;;;4983342;28;20515;-77
2021/03/29 10:14:36;;;;;;;1.50;0.90;;;21.50;58.20;;;;;;4993836;28;20842;-76
2021/03/29 10:17:03;;;;;;;1.50;0.90;;;21.50;58.20;;;;;;4989286;28;20488;-77
2021/03/29 10:19:32;;;;;;;1.50;0.90;;;21.50;57.10;;;;;;4991170;28;20849;-76
2021/03/29 10:22:08;;;;;;;1.53;0.90;;;21.60;56.90;;;;;;4978230;28;20561;-76
2021/03/29 10:24:35;;;;;;;1.50;0.90;;;21.70;55.70;;;;;;4992560;28;20547;-76
2021/03/29 10:27:04;;;;;;;1.50;0.90;;;21.70;56.00;;;;;;4983549;28;20519;-76
2021/03/29 10:29:37;;;;;;;1.50;0.90;;;21.70;55.10;;;;;;4994863;28;20496;-76
2021/03/29 10:32:08;;;;;;;1.50;0.90;;;21.80;55.70;;;;;;4986404;28;20579;-76
2021/03/29 10:34:37;;;;;;;1.50;0.90;;;21.90;54.60;;;;;;4992238;28;20499;-78
2021/03/29 10:37:17;;;;;;;1.50;0.90;;;21.90;54.40;;;;;;4979778;28;20567;-78
2021/03/29 10:39:43;;;;;;;1.50;0.90;;;21.90;54.40;;;;;;4998740;28;20516;-78
2021/03/29 10:42:11;;;;;;;1.50;0.90;;;21.90;55.30;;;;;;4992556;28;20506;-78
2021/03/29 10:44:37;;;;;;;1.50;0.90;;;22.00;54.20;;;;;;4988654;28;20468;-77
2021/03/29 10:47:03;;;;;;;1.50;0.90;;;22.10;54.00;;;;;;4985281;28;20483;-77
2021/03/29 10:49:30;;;;;;;1.50;0.90;;;22.10;55.30;;;;;;4990454;28;21026;-77
2021/03/29 10:51:56;;;;;;;1.50;0.90;;;22.20;53.00;;;;;;4987482;28;20894;-77
2021/03/29 10:54:23;;;;;;;1.60;1.20;;;22.20;54.40;;;;;;4999625;28;21114;-78
2021/03/29 10:56:49;;;;;;;1.50;0.90;;;22.40;53.70;;;;;;4990402;28;20539;-77
2021/03/29 10:59:16;;;;;;;1.50;0.90;;;22.40;53.70;;;;;;4990942;28;20472;-77
2021/03/29 11:01:42;;;;;;;1.50;0.90;;;22.50;53.10;;;;;;4981324;28;21178;-78
2021/03/29 11:04:08;;;;;;;1.50;0.90;;;22.60;51.60;;;;;;4991074;28;20461;-78
2021/03/29 11:06:35;;;;;;;1.50;0.90;;;22.60;52.70;;;;;;4983110;28;20547;-77
2021/03/29 11:09:01;;;;;;;1.50;0.83;;;22.70;52.90;;;;;;4997869;28;20473;-76
2021/03/29 11:11:28;;;;;;;1.50;0.90;;;22.80;52.20;;;;;;4983419;28;20488;-77
2021/03/29 11:13:55;;;;;;;1.50;0.90;;;22.90;52.60;;;;;;5003050;28;20519;-77
2021/03/29 11:16:23;;;;;;;1.50;0.93;;;23.00;53.50;;;;;;4984709;28;20476;-78
2021/03/29 11:18:49;;;;;;;1.50;0.90;;;23.00;53.70;;;;;;5002638;28;20840;-77
2021/03/29 11:21:16;;;;;;;1.50;0.90;;;23.10;52.10;;;;;;4979912;28;20638;-76
2021/03/29 11:23:42;;;;;;;1.50;0.90;;;23.10;49.70;;;;;;5001937;28;20465;-74
2021/03/29 11:26:09;;;;;;;1.50;0.90;;;23.00;51.10;;;;;;4988518;28;20491;-74
2021/03/29 11:28:36;;;;;;;1.50;0.90;;;23.10;52.40;;;;;;4999443;28;20479;-75
2021/03/29 11:31:02;;;;;;;1.50;0.90;;;23.30;51.60;;;;;;4976977;28;20492;-76
2021/03/29 11:33:29;;;;;;;1.50;0.90;;;23.40;52.40;;;;;;5003895;28;20863;-74
2021/03/29 11:35:55;;;;;;;1.50;1.00;;;23.50;50.60;;;;;;4976552;28;20466;-77
2021/03/29 11:38:21;;;;;;;1.50;0.90;;;23.50;50.60;;;;;;4997388;28;20467;-76
2021/03/29 11:40:48;;;;;;;1.50;0.90;;;23.60;52.10;;;;;;4975267;28;20527;-75
2021/03/29 11:43:14;;;;;;;1.50;0.90;;;23.70;51.80;;;;;;5005184;28;20491;-74
2021/03/29 11:45:41;;;;;;;1.50;0.90;;;23.70;51.70;;;;;;4995731;28;20464;-75
2021/03/29 11:48:08;;;;;;;1.50;0.90;;;23.70;50.10;;;;;;4990162;28;20535;-74
2021/03/29 11:50:35;;;;;;;1.50;0.90;;;23.70;49.10;;;;;;4992988;28;20851;-73
2021/03/29 11:53:01;;;;;;;1.50;1.00;;;23.80;50.30;;;;;;4991879;28;20480;-74
2021/03/29 11:55:28;;;;;;;1.50;0.90;;;23.70;49.60;;;;;;4998159;28;20993;-74
2021/03/29 11:57:55;;;;;;;1.50;0.90;;;23.80;50.10;;;;;;4986275;28;20527;-75
2021/03/29 12:00:29;;;;;;;1.50;0.90;;;23.80;50.70;;;;;;4993190;28;20481;-76
2021/03/29 12:03:07;;;;;;;1.50;0.87;;;23.80;50.40;;;;;;4990601;28;20543;-74
2021/03/29 12:05:36;;;;;;;1.50;0.90;;;23.80;49.90;;;;;;4984823;28;20971;-75
2021/03/29 12:08:14;;;;;;;1.50;0.90;;;23.80;51.30;;;;;;4990571;28;20982;-74
2021/03/29 12:13:26;;;;;;;1.50;0.90;;;23.90;50.90;;;;;;4992474;28;20478;-75
2021/03/29 12:15:55;;;;;;;1.47;0.90;;;24.00;50.20;;;;;;4972357;28;20873;-75
2021/03/29 12:18:34;;;;;;;1.43;0.90;;;24.10;49.40;;;;;;5002607;28;20480;-75
2021/03/29 12:21:02;;;;;;;1.50;0.90;;;24.20;50.80;;;;;;4974762;28;20511;-75
2021/03/29 12:23:29;;;;;;;1.50;0.90;;;24.30;50.00;;;;;;4998067;28;20868;-75
2021/03/29 12:25:58;;;;;;;1.50;0.80;;;24.30;49.40;;;;;;4978628;28;20465;-74
2021/03/29 12:28:27;;;;;;;1.50;0.90;;;24.30;49.30;;;;;;4996928;28;20518;-76
2021/03/29 12:30:54;;;;;;;1.50;0.90;;;24.20;47.70;;;;;;4982081;28;20492;-77
2021/03/29 12:33:22;;;;;;;2.37;1.53;;;24.20;48.70;;;;;;5001868;28;20487;-76
2021/03/29 12:35:48;;;;;;;1.50;0.90;;;24.10;49.70;;;;;;4986349;28;20497;-75
2021/03/29 12:38:15;;;;;;;1.50;0.90;;;24.20;48.80;;;;;;4996501;28;20479;-76
2021/03/29 12:40:44;;;;;;;1.50;0.90;;;24.30;49.20;;;;;;4983190;28;21029;-77
2021/03/29 12:43:14;;;;;;;1.50;0.90;;;24.40;48.90;;;;;;4971329;28;20477;-77
2021/03/29 12:45:42;;;;;;;1.50;0.90;;;24.50;50.30;;;;;;4984594;28;20813;-76
2021/03/29 12:48:13;;;;;;;1.50;0.90;;;24.50;46.90;;;;;;4988903;28;20555;-76
2021/03/29 12:50:41;;;;;;;1.60;1.20;;;24.50;47.50;;;;;;4993191;28;20547;-75
2021/03/29 12:53:09;;;;;;;1.50;0.90;;;24.60;46.70;;;;;;4982437;28;20844;-74
2021/03/29 12:55:36;;;;;;;1.50;0.90;;;24.70;45.80;;;;;;4986034;28;20531;-76
2021/03/29 12:58:02;;;;;;;1.43;0.90;;;24.70;44.00;;;;;;4989405;28;20594;-75
2021/03/29 13:00:29;;;;;;;1.40;0.90;;;24.80;44.40;;;;;;4990210;28;20560;-75
2021/03/29 13:02:58;;;;;;;1.50;0.90;;;24.80;45.40;;;;;;4989597;28;20539;-76